Ana Sayfa
METAR-TAF:

METAR-TAF

Havaalanları :

Sisam, Yunanistan

Enlem: 37-42N, Boylam: 026-55E, yükseklik: 2 m

Güncel hava durumu gözlemi

Rapor saat 17:20 UTC de 35 dakika önce yapıldı.
Rüzgar kuzey/kuzeybatıdan 15 kt
Sıcaklık 27°C
Nem 58%
Basınç 1005 hPa
Görüş mesafesi 10 km veya daha fazla
1500 m altında bulut yok ve kümülonimbus yok

METAR: LGSM 181720Z 34015KT CAVOK 27/18 Q1005

Saat: 20:55 (17:55 UTC)

Tahmin

Rapor saat 17:00 UTC de 55 dakika önce yapıldı.
Ayın 18'si saat 18 UTC'den ayın 19'si saat 03 UTC'ye kadar geçerli Tahmin
Rüzgar kuzeydan 15 kt
Görüş mesafesi 10 km veya daha fazla
2500 ft yükseklikte az bulutlu
Geçici
ayın 18'si saat 18 UTC'den ayın 18'si saat 21 UTC'ye kadar
Rüzgar kuzeydan 15 kt ve 25 kt'a kadar ani rüzgarlar

TAF: LGSM 181700Z 1818/1903 35015KT 9999 FEW025 TEMPO 1818/1821 35015G25KT

4.000'den fazla havaalanı için hava durumu gözlemleri ve tahminleri (METAR ve TAF raporları).

Kullanılabilir istasyonlar harita üzerinde sarı ve kırmızı noktalarla gösterilir.

İstasyonun adını görmek için fareyi noktanın üzerinde gezdirin.

Sonrasında hava gözlem ve tahminlerini görmek için tıklayın.

Haritayı değiştirmek için: yaklaştırmak için siyah artı işaretli yeşil düğmeye ve uzaklaştırmak için de eksi işaretli düğmeye hızla tıklayın; bitişik haritalar için yeşil okları kullanın.


METAR-TAF: